TimePDT,TemperatureF,Dew PointF,Humidity,Sea Level PressureIn,VisibilityMPH,Wind Direction,Wind SpeedMPH,Gust SpeedMPH,PrecipitationIn,Events,Conditions,WindDirDegrees,DateUTC
12:53 AM,45.0,34.0,65,30.00,10.0,Calm,Calm,-,N/A,,Mostly Cloudy,0,2013-04-11 07:53:00
1:53 AM,48.0,36.0,63,29.96,10.0,SSW,4.6,-,N/A,,Overcast,210,2013-04-11 08:53:00
2:53 AM,48.0,36.0,63,29.92,10.0,SW,4.6,-,N/A,,Mostly Cloudy,220,2013-04-11 09:53:00
3:53 AM,46.9,37.0,68,29.92,10.0,Calm,Calm,-,N/A,,Overcast,0,2013-04-11 10:53:00
4:53 AM,46.9,37.0,68,29.91,10.0,Calm,Calm,-,N/A,,Overcast,0,2013-04-11 11:53:00
5:53 AM,46.0,37.0,71,29.93,10.0,Calm,Calm,-,N/A,,Overcast,0,2013-04-11 12:53:00
6:32 AM,44.6,35.6,71,30.07,10.0,North,5.8,-,N/A,,Overcast,10,2013-04-11 13:32:00
6:53 AM,44.1,36.0,73,29.97,10.0,Variable,5.8,-,N/A,,Overcast,0,2013-04-11 13:53:00
7:53 AM,44.1,36.0,73,29.99,10.0,Calm,Calm,-,N/A,,Overcast,0,2013-04-11 14:53:00
8:34 AM,44.6,35.6,71,30.08,10.0,Calm,Calm,-,N/A,,Overcast,0,2013-04-11 15:34:00
8:53 AM,45.0,34.0,65,30.00,10.0,ENE,9.2,-,N/A,,Mostly Cloudy,70,2013-04-11 15:53:00
9:01 AM,44.6,33.8,66,30.08,10.0,East,9.2,18.4,N/A,,Mostly Cloudy,100,2013-04-11 16:01:00
10:21 AM,50.0,35.6,58,30.08,10.0,Calm,Calm,-,N/A,,Mostly Cloudy,0,2013-04-11 17:21:00
10:38 AM,50.0,35.6,58,30.08,10.0,NE,6.9,-,N/A,,Scattered Clouds,40,2013-04-11 17:38:00
10:53 AM,53.1,36.0,52,29.98,10.0,Variable,4.6,-,N/A,,Scattered Clouds,0,2013-04-11 17:53:00
11:53 AM,52.0,36.0,54,29.98,10.0,Variable,3.5,-,N/A,,Clear,0,2013-04-11 18:53:00
12:53 PM,55.0,36.0,49,29.95,10.0,NNE,9.2,18.4,N/A,,Clear,20,2013-04-11 19:53:00
1:53 PM,57.0,34.0,42,29.91,10.0,Variable,4.6,-,N/A,,Clear,0,2013-04-11 20:53:00
2:53 PM,55.0,32.0,42,29.91,10.0,Variable,5.8,16.1,N/A,,Clear,0,2013-04-11 21:53:00
3:53 PM,57.0,28.9,34,29.89,10.0,Variable,5.8,-,N/A,,Clear,0,2013-04-11 22:53:00
4:53 PM,59.0,23.0,25,29.86,10.0,NNE,5.8,-,N/A,,Clear,30,2013-04-11 23:53:00
5:53 PM,55.9,25.0,30,29.88,10.0,NNE,5.8,-,N/A,,Clear,20,2013-04-12 00:53:00
6:53 PM,50.0,32.0,50,29.90,10.0,Calm,Calm,-,N/A,,Clear,0,2013-04-12 01:53:00
7:53 PM,45.0,30.0,56,29.91,10.0,Calm,Calm,-,N/A,,Clear,0,2013-04-12 02:53:00
8:53 PM,45.0,30.0,56,29.92,10.0,Calm,Calm,-,N/A,,Clear,0,2013-04-12 03:53:00
9:53 PM,41.0,30.0,65,29.95,10.0,Calm,Calm,-,N/A,,Clear,0,2013-04-12 04:53:00
10:53 PM,39.0,28.9,67,29.95,10.0,Variable,3.5,-,N/A,,Clear,0,2013-04-12 05:53:00
11:53 PM,37.0,28.0,70,29.95,10.0,Calm,Calm,-,N/A,,Clear,0,2013-04-12 06:53:00